OVO596 ZSPD-LSZH
Flight info
| Callsign | OVO596 |
|---|---|
| Flight time | N/A |
| Altitude | 34100 |
| Route | PIK83D PIKAS G330 PIMOL A593 DALIM W157 BEKDO/K0913S1010 W157 VYK G212 SOTMU/K0904S1040 B339 ASILA A575 UPREK W28 LAGEB W66 NUKTI B215 FKG A368 SARIN/K0909F340 N161 UNABO/K0896F360 N161 GASBI/N0494F360 N161 LEYLA N644 ADEKI DCT BADIR DCT LAGAS DCT NOLGA/N0496F380 UN61 TBN UM11 CRM UL746 ODERO DCT LUGEB DCT SOKRU DCT INVED DCT SUNIS DCT ERKIR DCT KPT L856 NEGRA |
| Aircraft | A35K/H-SDE2E3GHIJ3J4J5LM1ORWXY/LB1D1 |
Departure
| Time | 2026-05-04 19:13 |
|---|---|
| Airport | Shanghai Pudong International Airport (ZSPD) |
Arrival
| Time | N/A |
|---|---|
| Airport | Zürich Airport (LSZH) |
| Time | Latitude | Longitude | Altitude | Speed | Heading |
|---|---|---|---|---|---|
| 2026-05-04 18:29 | 31.13539 | 121.80244 | 29 ft | 0 kts | 72° |
| 2026-05-04 18:53 | 31.13539 | 121.80243 | 28 ft | 1 kts | 72° |
| 2026-05-04 18:53 | 31.13532 | 121.80218 | 47 ft | 4 kts | 72° |
| 2026-05-04 18:53 | 31.13525 | 121.80195 | 28 ft | 4 kts | 72° |
| 2026-05-04 18:53 | 31.13516 | 121.80165 | 27 ft | 4 kts | 60° |
| 2026-05-04 18:54 | 31.13502 | 121.80146 | 27 ft | 4 kts | 359° |
| 2026-05-04 18:54 | 31.13479 | 121.80153 | 28 ft | 4 kts | 342° |
| 2026-05-04 18:54 | 31.13453 | 121.80162 | 26 ft | 4 kts | 342° |
| 2026-05-04 18:54 | 31.13435 | 121.80169 | 27 ft | 0 kts | 342° |
| 2026-05-04 19:00 | 31.13436 | 121.80169 | 28 ft | 0 kts | 342° |
| 2026-05-04 19:01 | 31.13459 | 121.80160 | 28 ft | 10 kts | 342° |
| 2026-05-04 19:01 | 31.13495 | 121.80124 | 28 ft | 7 kts | 296° |
| 2026-05-04 19:01 | 31.13496 | 121.80070 | 28 ft | 7 kts | 256° |
| 2026-05-04 19:01 | 31.13482 | 121.80012 | 28 ft | 8 kts | 253° |
| 2026-05-04 19:02 | 31.13487 | 121.79965 | 28 ft | 5 kts | 308° |
| 2026-05-04 19:02 | 31.13533 | 121.79911 | 28 ft | 16 kts | 326° |
| 2026-05-04 19:02 | 31.13634 | 121.79868 | 28 ft | 16 kts | 342° |
| 2026-05-04 19:02 | 31.13718 | 121.79836 | 28 ft | 16 kts | 342° |
| 2026-05-04 19:03 | 31.13771 | 121.79815 | 29 ft | 16 kts | 341° |
| 2026-05-04 19:03 | 31.13852 | 121.79783 | 29 ft | 16 kts | 341° |
| 2026-05-04 19:03 | 31.13963 | 121.79746 | 29 ft | 16 kts | 345° |
| 2026-05-04 19:03 | 31.14070 | 121.79704 | 29 ft | 17 kts | 340° |
| 2026-05-04 19:04 | 31.14181 | 121.79660 | 28 ft | 17 kts | 342° |
| 2026-05-04 19:04 | 31.14293 | 121.79618 | 28 ft | 17 kts | 342° |
| 2026-05-04 19:04 | 31.14409 | 121.79574 | 29 ft | 17 kts | 342° |
| 2026-05-04 19:04 | 31.14525 | 121.79530 | 29 ft | 18 kts | 343° |
| 2026-05-04 19:05 | 31.14644 | 121.79486 | 29 ft | 18 kts | 342° |
| 2026-05-04 19:05 | 31.14762 | 121.79441 | 29 ft | 18 kts | 342° |
| 2026-05-04 19:05 | 31.14883 | 121.79395 | 29 ft | 18 kts | 342° |
| 2026-05-04 19:05 | 31.15005 | 121.79349 | 29 ft | 19 kts | 342° |
| 2026-05-04 19:06 | 31.15129 | 121.79303 | 29 ft | 19 kts | 342° |
| 2026-05-04 19:06 | 31.15254 | 121.79256 | 28 ft | 19 kts | 342° |
| 2026-05-04 19:06 | 31.15382 | 121.79208 | 28 ft | 19 kts | 342° |
| 2026-05-04 19:06 | 31.15510 | 121.79160 | 28 ft | 20 kts | 342° |
| 2026-05-04 19:07 | 31.15640 | 121.79111 | 28 ft | 20 kts | 342° |
| 2026-05-04 19:07 | 31.15770 | 121.79061 | 28 ft | 20 kts | 342° |
| 2026-05-04 19:07 | 31.15843 | 121.79034 | 28 ft | 13 kts | 342° |
| 2026-05-04 19:07 | 31.15957 | 121.78990 | 29 ft | 13 kts | 341° |
| 2026-05-04 19:08 | 31.16015 | 121.78968 | 29 ft | 13 kts | 342° |
| 2026-05-04 19:08 | 31.16104 | 121.78935 | 29 ft | 11 kts | 342° |
| 2026-05-04 19:08 | 31.16161 | 121.78898 | 29 ft | 9 kts | 308° |
| 2026-05-04 19:08 | 31.16166 | 121.78828 | 29 ft | 7 kts | 258° |
| 2026-05-04 19:09 | 31.16159 | 121.78795 | 29 ft | 5 kts | 253° |
| 2026-05-04 19:09 | 31.16148 | 121.78756 | 29 ft | 5 kts | 253° |
| 2026-05-04 19:09 | 31.16146 | 121.78747 | 29 ft | 0 kts | 253° |
| 2026-05-04 19:10 | 31.16146 | 121.78746 | 29 ft | 2 kts | 253° |
| 2026-05-04 19:10 | 31.16139 | 121.78719 | 29 ft | 7 kts | 253° |
| 2026-05-04 19:10 | 31.16113 | 121.78643 | 28 ft | 8 kts | 228° |
| 2026-05-04 19:10 | 31.16059 | 121.78630 | 28 ft | 9 kts | 173° |
| 2026-05-04 19:11 | 31.16008 | 121.78645 | 27 ft | 0 kts | 162° |
| 2026-05-04 19:12 | 31.15803 | 121.78721 | 29 ft | 60 kts | 162° |
| 2026-05-04 19:12 | 31.15234 | 121.78936 | 28 ft | 111 kts | 162° |
| 2026-05-04 19:13 | 31.14349 | 121.79268 | 28 ft | 155 kts | 162° |
| 2026-05-04 19:13 | 31.13246 | 121.79671 | 332 ft | 165 kts | 163° |
| 2026-05-04 19:13 | 31.12174 | 121.80065 | 873 ft | 161 kts | 162° |
| 2026-05-04 19:13 | 31.11112 | 121.80482 | 1298 ft | 167 kts | 163° |
| 2026-05-04 19:14 | 31.09961 | 121.80926 | 1588 ft | 177 kts | 163° |
| 2026-05-04 19:14 | 31.08749 | 121.81390 | 1858 ft | 191 kts | 163° |
| 2026-05-04 19:14 | 31.07426 | 121.81895 | 2051 ft | 208 kts | 163° |
| 2026-05-04 19:14 | 31.06013 | 121.82435 | 2390 ft | 218 kts | 163° |
| 2026-05-04 19:15 | 31.04566 | 121.82989 | 2833 ft | 220 kts | 163° |
| 2026-05-04 19:15 | 31.03100 | 121.83548 | 3277 ft | 223 kts | 163° |
| 2026-05-04 19:15 | 31.01616 | 121.84114 | 3706 ft | 226 kts | 163° |
| 2026-05-04 19:15 | 31.00066 | 121.84704 | 3871 ft | 244 kts | 163° |
| 2026-05-04 19:16 | 30.98418 | 121.85331 | 4083 ft | 258 kts | 163° |
| 2026-05-04 19:16 | 30.96688 | 121.85995 | 4529 ft | 264 kts | 162° |
| 2026-05-04 19:16 | 30.95051 | 121.86997 | 5004 ft | 271 kts | 141° |
| 2026-05-04 19:16 | 30.93961 | 121.88788 | 5456 ft | 277 kts | 109° |
| 2026-05-04 19:17 | 30.93791 | 121.91007 | 5988 ft | 277 kts | 81° |
| 2026-05-04 19:17 | 30.94162 | 121.93207 | 6603 ft | 278 kts | 76° |
| 2026-05-04 19:17 | 30.94595 | 121.95413 | 7177 ft | 280 kts | 75° |
| 2026-05-04 19:17 | 30.95025 | 121.97642 | 7730 ft | 284 kts | 76° |
| 2026-05-04 19:18 | 30.95449 | 121.99898 | 8329 ft | 286 kts | 76° |
| 2026-05-04 19:18 | 30.95894 | 122.02163 | 8936 ft | 288 kts | 75° |
| 2026-05-04 19:18 | 30.96581 | 122.04360 | 9488 ft | 290 kts | 58° |
| 2026-05-04 19:18 | 30.97917 | 122.06081 | 10052 ft | 288 kts | 32° |
| 2026-05-04 19:19 | 30.99772 | 122.06999 | 10352 ft | 297 kts | 8° |
| 2026-05-04 19:19 | 31.01870 | 122.07202 | 10582 ft | 310 kts | 0° |
| 2026-05-04 19:19 | 31.04076 | 122.07243 | 10810 ft | 325 kts | 356° |
| 2026-05-04 19:19 | 31.06325 | 122.06728 | 11001 ft | 337 kts | 336° |
| 2026-05-04 19:20 | 31.08416 | 122.05403 | 11247 ft | 349 kts | 327° |
| 2026-05-04 19:20 | 31.10479 | 122.03879 | 11477 ft | 361 kts | 327° |
| 2026-05-04 19:20 | 31.12663 | 122.02263 | 11709 ft | 374 kts | 327° |
| 2026-05-04 19:20 | 31.14891 | 122.00630 | 12026 ft | 382 kts | 327° |
| 2026-05-04 19:21 | 31.17131 | 121.98997 | 12480 ft | 386 kts | 327° |
| 2026-05-04 19:21 | 31.19450 | 121.97312 | 12963 ft | 389 kts | 327° |
| 2026-05-04 19:21 | 31.21760 | 121.95634 | 13443 ft | 392 kts | 327° |
| 2026-05-04 19:21 | 31.24084 | 121.93946 | 13920 ft | 395 kts | 326° |
| 2026-05-04 19:22 | 31.26430 | 121.92242 | 14344 ft | 398 kts | 326° |
| 2026-05-04 19:22 | 31.28792 | 121.90525 | 14776 ft | 400 kts | 326° |
| 2026-05-04 19:22 | 31.31160 | 121.88803 | 15245 ft | 402 kts | 326° |
| 2026-05-04 19:22 | 31.33540 | 121.87072 | 15688 ft | 404 kts | 326° |
| 2026-05-04 19:23 | 31.35916 | 121.85302 | 16132 ft | 406 kts | 323° |
| 2026-05-04 19:23 | 31.38064 | 121.83232 | 16582 ft | 405 kts | 314° |
| 2026-05-04 19:23 | 31.40097 | 121.80884 | 17045 ft | 407 kts | 313° |
| 2026-05-04 19:23 | 31.42093 | 121.78524 | 17516 ft | 409 kts | 312° |
| 2026-05-04 19:24 | 31.44098 | 121.76152 | 17982 ft | 411 kts | 312° |
| 2026-05-04 19:24 | 31.46087 | 121.73804 | 18440 ft | 413 kts | 312° |
| 2026-05-04 19:24 | 31.48138 | 121.71384 | 18804 ft | 415 kts | 312° |
| 2026-05-04 19:24 | 31.50155 | 121.69005 | 19204 ft | 417 kts | 312° |
| 2026-05-04 19:25 | 31.52202 | 121.66588 | 19604 ft | 419 kts | 312° |
| 2026-05-04 19:25 | 31.54262 | 121.64157 | 19977 ft | 421 kts | 312° |
| 2026-05-04 19:25 | 31.56331 | 121.61712 | 20382 ft | 424 kts | 312° |
| 2026-05-04 19:25 | 31.58413 | 121.59252 | 20790 ft | 426 kts | 312° |
| 2026-05-04 19:26 | 31.60502 | 121.56780 | 21182 ft | 428 kts | 312° |
| 2026-05-04 19:26 | 31.62608 | 121.54288 | 21592 ft | 431 kts | 311° |
| 2026-05-04 19:26 | 31.64723 | 121.51783 | 22011 ft | 433 kts | 312° |
| 2026-05-04 19:26 | 31.66847 | 121.49264 | 22417 ft | 436 kts | 312° |
| 2026-05-04 19:27 | 31.68990 | 121.46723 | 22843 ft | 438 kts | 312° |
| 2026-05-04 19:27 | 31.71141 | 121.44171 | 23258 ft | 441 kts | 312° |
| 2026-05-04 19:27 | 31.73301 | 121.41606 | 23667 ft | 444 kts | 312° |
| 2026-05-04 19:27 | 31.75480 | 121.39016 | 24030 ft | 446 kts | 311° |
| 2026-05-04 19:28 | 31.77662 | 121.36422 | 24428 ft | 447 kts | 311° |
| 2026-05-04 19:28 | 31.79848 | 121.33820 | 24821 ft | 448 kts | 311° |
| 2026-05-04 19:28 | 31.82043 | 121.31206 | 25192 ft | 450 kts | 311° |
| 2026-05-04 19:28 | 31.84241 | 121.28585 | 25580 ft | 451 kts | 311° |
| 2026-05-04 19:29 | 31.86449 | 121.25951 | 25922 ft | 453 kts | 311° |
| 2026-05-04 19:29 | 31.88669 | 121.23300 | 26267 ft | 455 kts | 311° |
| 2026-05-04 19:29 | 31.90897 | 121.20635 | 26558 ft | 458 kts | 311° |
| 2026-05-04 19:29 | 31.93136 | 121.17960 | 26906 ft | 460 kts | 311° |
| 2026-05-04 19:30 | 31.95385 | 121.15272 | 27250 ft | 461 kts | 310° |
| 2026-05-04 19:30 | 31.97639 | 121.12574 | 27565 ft | 463 kts | 310° |
| 2026-05-04 19:30 | 31.99898 | 121.09869 | 27895 ft | 465 kts | 310° |
| 2026-05-04 19:30 | 32.02169 | 121.07147 | 28197 ft | 466 kts | 310° |
| 2026-05-04 19:31 | 32.04442 | 121.04420 | 28498 ft | 468 kts | 310° |
| 2026-05-04 19:31 | 32.06705 | 121.01661 | 28774 ft | 468 kts | 308° |
| 2026-05-04 19:31 | 32.08725 | 120.98675 | 29134 ft | 463 kts | 300° |
| 2026-05-04 19:31 | 32.10330 | 120.95421 | 29610 ft | 456 kts | 292° |
| 2026-05-04 19:32 | 32.11531 | 120.91948 | 29658 ft | 460 kts | 287° |
| 2026-05-04 19:32 | 32.12538 | 120.88356 | 29852 ft | 462 kts | 285° |
| 2026-05-04 19:32 | 32.13524 | 120.84764 | 30297 ft | 458 kts | 285° |
| 2026-05-04 19:32 | 32.14503 | 120.81209 | 30720 ft | 455 kts | 285° |
| 2026-05-04 19:33 | 32.15481 | 120.77667 | 31098 ft | 452 kts | 285° |
| 2026-05-04 19:33 | 32.16367 | 120.74127 | 31412 ft | 449 kts | 281° |
| 2026-05-04 19:33 | 32.16915 | 120.70516 | 31705 ft | 445 kts | 275° |
| 2026-05-04 19:33 | 32.17282 | 120.66902 | 31997 ft | 443 kts | 274° |
| 2026-05-04 19:34 | 32.17591 | 120.63291 | 32285 ft | 442 kts | 274° |
| 2026-05-04 19:34 | 32.17875 | 120.59686 | 32559 ft | 440 kts | 273° |
| 2026-05-04 19:34 | 32.18149 | 120.56143 | 32827 ft | 438 kts | 273° |
| 2026-05-04 19:34 | 32.18433 | 120.52522 | 33088 ft | 437 kts | 274° |
| 2026-05-04 19:35 | 32.18718 | 120.48953 | 33324 ft | 436 kts | 274° |
| 2026-05-04 19:35 | 32.19002 | 120.45443 | 33553 ft | 435 kts | 274° |
| 2026-05-04 19:35 | 32.19296 | 120.41851 | 33783 ft | 434 kts | 274° |
| 2026-05-04 19:35 | 32.19583 | 120.38358 | 33993 ft | 433 kts | 274° |
| 2026-05-04 19:36 | 32.19874 | 120.34800 | 33996 ft | 437 kts | 274° |
| 2026-05-04 19:36 | 32.20165 | 120.31230 | 34097 ft | 437 kts | 274° |
| 2026-05-04 19:36 | 32.20456 | 120.27663 | 34302 ft | 435 kts | 274° |
| 2026-05-04 19:36 | 32.20746 | 120.24115 | 34483 ft | 434 kts | 274° |
| 2026-05-04 19:37 | 32.21036 | 120.20577 | 34645 ft | 433 kts | 274° |
| 2026-05-04 19:37 | 32.21326 | 120.17039 | 34770 ft | 432 kts | 274° |
| 2026-05-04 19:37 | 32.21613 | 120.13505 | 34900 ft | 432 kts | 274° |
| 2026-05-04 19:37 | 32.21900 | 120.09976 | 35026 ft | 432 kts | 274° |
| 2026-05-04 19:38 | 32.22186 | 120.06432 | 35032 ft | 434 kts | 274° |
| 2026-05-04 19:38 | 32.22756 | 119.99329 | 35260 ft | 433 kts | 274° |
| 2026-05-04 19:38 | 32.23038 | 119.95791 | 35387 ft | 432 kts | 274° |
| 2026-05-04 19:39 | 32.23320 | 119.92257 | 35504 ft | 432 kts | 274° |
| 2026-05-04 19:39 | 32.23600 | 119.88723 | 35611 ft | 431 kts | 274° |
| 2026-05-04 19:39 | 32.23878 | 119.85205 | 35709 ft | 431 kts | 274° |
| 2026-05-04 19:40 | 32.23968 | 119.84063 | 35748 ft | 430 kts | 274° |
| 2026-05-04 19:40 | 32.24952 | 119.75404 | 35641 ft | 441 kts | 288° |
| 2026-05-04 19:40 | 32.26419 | 119.72197 | 35641 ft | 450 kts | 303° |
| 2026-05-04 19:40 | 32.28652 | 119.69569 | 35664 ft | 461 kts | 319° |
| 2026-05-04 19:41 | 32.31440 | 119.67629 | 35548 ft | 466 kts | 328° |
| 2026-05-04 19:41 | 32.34346 | 119.66022 | 34899 ft | 468 kts | 329° |
| 2026-05-04 19:41 | 32.37325 | 119.64325 | 34388 ft | 470 kts | 327° |
| 2026-05-04 19:41 | 32.40194 | 119.62458 | 34158 ft | 473 kts | 324° |
| 2026-05-04 19:42 | 32.42987 | 119.60401 | 34116 ft | 474 kts | 321° |
| 2026-05-04 19:42 | 32.48365 | 119.55987 | 34121 ft | 472 kts | 319° |
| 2026-05-04 19:43 | 32.53652 | 119.51376 | 34119 ft | 472 kts | 319° |
| 2026-05-04 19:43 | 32.58930 | 119.46745 | 34116 ft | 473 kts | 320° |